Terminal Aerodrome Forecast
Issued by NWS Wakefield, VA

Home | Current Version | Previous Version | Text Only | Print | Product List | Glossary On
Versions: 1 2 3 4 5 6 7 8 9 10 11 12 13 14 15 16 17 18
000
FTUS41 KAKQ 271100 RRA
TAFORF
TAF
KORF 271147Z 2712/2812 36014G22KT 5SM -SN BR SCT009 OVC015
      TEMPO 2712/2715 2SM -SN BR OVC009
     FM271800 35013G20KT P6SM OVC025
     FM280500 34013G20KT P6SM SCT040=

USA.gov is the U.S. government's official web portal to all federal, state and local government web resources and services.